sensor_id;sensor_type;location;lat;lon;timestamp;temperature;humidity
51595;DHT22;37677;53.254;6.594;2022-07-01T00:00:31;15.60;84.70
51595;DHT22;37677;53.254;6.594;2022-07-01T00:02:57;15.60;83.10
51595;DHT22;37677;53.254;6.594;2022-07-01T00:05:30;15.90;84.10
51595;DHT22;37677;53.254;6.594;2022-07-01T00:07:56;15.60;85.00
51595;DHT22;37677;53.254;6.594;2022-07-01T00:10:21;14.20;84.50
51595;DHT22;37677;53.254;6.594;2022-07-01T00:12:47;16.10;84.20
51595;DHT22;37677;53.254;6.594;2022-07-01T00:15:16;15.50;85.20
51595;DHT22;37677;53.254;6.594;2022-07-01T00:17:59;15.60;85.80
51595;DHT22;37677;53.254;6.594;2022-07-01T00:20:25;15.50;86.30
51595;DHT22;37677;53.254;6.594;2022-07-01T00:22:51;15.70;85.40
51595;DHT22;37677;53.254;6.594;2022-07-01T00:25:22;15.70;85.00
51595;DHT22;37677;53.254;6.594;2022-07-01T00:27:47;15.80;85.20
51595;DHT22;37677;53.254;6.594;2022-07-01T00:30:13;15.70;84.60
51595;DHT22;37677;53.254;6.594;2022-07-01T00:32:40;15.70;84.80
51595;DHT22;37677;53.254;6.594;2022-07-01T00:35:06;16.90;85.70
51595;DHT22;37677;53.254;6.594;2022-07-01T00:37:34;15.70;86.00
51595;DHT22;37677;53.254;6.594;2022-07-01T00:40:03;15.70;86.50
51595;DHT22;37677;53.254;6.594;2022-07-01T00:42:42;15.70;86.20
51595;DHT22;37677;53.254;6.594;2022-07-01T00:45:15;15.70;85.80
51595;DHT22;37677;53.254;6.594;2022-07-01T00:47:42;15.60;85.80
51595;DHT22;37677;53.254;6.594;2022-07-01T00:50:13;15.90;86.80
51595;DHT22;37677;53.254;6.594;2022-07-01T00:52:43;15.90;87.40
51595;DHT22;37677;53.254;6.594;2022-07-01T00:55:15;15.60;87.50
51595;DHT22;37677;53.254;6.594;2022-07-01T00:57:44;15.70;87.20
51595;DHT22;37677;53.254;6.594;2022-07-01T01:00:15;15.60;88.30
51595;DHT22;37677;53.254;6.594;2022-07-01T01:02:44;15.60;88.70
51595;DHT22;37677;53.254;6.594;2022-07-01T01:05:10;15.60;88.50
51595;DHT22;37677;53.254;6.594;2022-07-01T01:07:37;16.10;88.10
51595;DHT22;37677;53.254;6.594;2022-07-01T01:10:05;15.50;89.00
51595;DHT22;37677;53.254;6.594;2022-07-01T01:12:31;15.60;88.80
51595;DHT22;37677;53.254;6.594;2022-07-01T01:15:00;15.60;87.20
51595;DHT22;37677;53.254;6.594;2022-07-01T01:17:26;15.60;87.40
51595;DHT22;37677;53.254;6.594;2022-07-01T01:19:52;15.80;87.40
51595;DHT22;37677;53.254;6.594;2022-07-01T01:22:19;15.60;88.30
51595;DHT22;37677;53.254;6.594;2022-07-01T01:24:46;15.60;87.40
51595;DHT22;37677;53.254;6.594;2022-07-01T01:27:13;15.70;87.80
51595;DHT22;37677;53.254;6.594;2022-07-01T01:29:42;15.80;86.80
51595;DHT22;37677;53.254;6.594;2022-07-01T01:32:09;15.80;86.60
51595;DHT22;37677;53.254;6.594;2022-07-01T01:34:36;16.60;86.80
51595;DHT22;37677;53.254;6.594;2022-07-01T01:37:03;16.70;86.70
51595;DHT22;37677;53.254;6.594;2022-07-01T01:39:29;15.60;84.80
51595;DHT22;37677;53.254;6.594;2022-07-01T01:41:55;15.60;86.50
51595;DHT22;37677;53.254;6.594;2022-07-01T01:44:21;16.00;84.90
51595;DHT22;37677;53.254;6.594;2022-07-01T01:46:47;15.60;84.60
51595;DHT22;37677;53.254;6.594;2022-07-01T01:49:15;15.60;84.30
51595;DHT22;37677;53.254;6.594;2022-07-01T01:51:41;15.60;83.70
51595;DHT22;37677;53.254;6.594;2022-07-01T01:54:07;15.60;82.80
51595;DHT22;37677;53.254;6.594;2022-07-01T01:56:33;15.60;82.50
51595;DHT22;37677;53.254;6.594;2022-07-01T01:58:59;15.60;81.90
51595;DHT22;37677;53.254;6.594;2022-07-01T02:01:25;16.40;83.20
51595;DHT22;37677;53.254;6.594;2022-07-01T02:03:52;15.60;82.10
51595;DHT22;37677;53.254;6.594;2022-07-01T02:06:19;16.20;82.90
51595;DHT22;37677;53.254;6.594;2022-07-01T02:08:45;15.70;82.50
51595;DHT22;37677;53.254;6.594;2022-07-01T02:11:14;15.70;83.20
51595;DHT22;37677;53.254;6.594;2022-07-01T02:13:39;15.70;82.10
51595;DHT22;37677;53.254;6.594;2022-07-01T02:16:13;15.60;81.90
51595;DHT22;37677;53.254;6.594;2022-07-01T02:18:39;15.70;82.10
51595;DHT22;37677;53.254;6.594;2022-07-01T02:21:04;15.60;81.80
51595;DHT22;37677;53.254;6.594;2022-07-01T02:23:31;15.60;81.10
51595;DHT22;37677;53.254;6.594;2022-07-01T02:25:59;15.70;81.30
51595;DHT22;37677;53.254;6.594;2022-07-01T02:28:25;15.70;81.50
51595;DHT22;37677;53.254;6.594;2022-07-01T02:30:50;15.70;82.20
51595;DHT22;37677;53.254;6.594;2022-07-01T02:33:16;14.90;79.70
51595;DHT22;37677;53.254;6.594;2022-07-01T02:35:44;15.90;79.90
51595;DHT22;37677;53.254;6.594;2022-07-01T02:38:10;15.60;81.20
51595;DHT22;37677;53.254;6.594;2022-07-01T02:40:36;16.00;82.50
51595;DHT22;37677;53.254;6.594;2022-07-01T02:43:08;15.60;79.70
51595;DHT22;37677;53.254;6.594;2022-07-01T02:45:37;15.80;79.70
51595;DHT22;37677;53.254;6.594;2022-07-01T02:48:03;15.70;77.90
51595;DHT22;37677;53.254;6.594;2022-07-01T02:50:29;15.50;78.60
51595;DHT22;37677;53.254;6.594;2022-07-01T02:52:54;15.50;79.30
51595;DHT22;37677;53.254;6.594;2022-07-01T02:55:20;15.50;80.10
51595;DHT22;37677;53.254;6.594;2022-07-01T02:57:47;15.50;79.30
51595;DHT22;37677;53.254;6.594;2022-07-01T03:00:18;17.50;79.90
51595;DHT22;37677;53.254;6.594;2022-07-01T03:02:44;15.50;79.70
51595;DHT22;37677;53.254;6.594;2022-07-01T03:05:10;15.50;80.50
51595;DHT22;37677;53.254;6.594;2022-07-01T03:07:37;15.50;80.40
51595;DHT22;37677;53.254;6.594;2022-07-01T03:10:04;15.50;80.40
51595;DHT22;37677;53.254;6.594;2022-07-01T03:12:30;15.50;79.70
51595;DHT22;37677;53.254;6.594;2022-07-01T03:15:03;15.40;79.30
51595;DHT22;37677;53.254;6.594;2022-07-01T03:17:32;15.50;80.10
51595;DHT22;37677;53.254;6.594;2022-07-01T03:19:59;15.50;79.70
51595;DHT22;37677;53.254;6.594;2022-07-01T03:22:29;15.40;79.00
51595;DHT22;37677;53.254;6.594;2022-07-01T03:24:56;15.40;79.60
51595;DHT22;37677;53.254;6.594;2022-07-01T03:27:22;15.40;79.70
51595;DHT22;37677;53.254;6.594;2022-07-01T03:29:48;15.40;80.10
51595;DHT22;37677;53.254;6.594;2022-07-01T03:32:14;15.40;79.20
51595;DHT22;37677;53.254;6.594;2022-07-01T03:34:42;15.60;79.80
51595;DHT22;37677;53.254;6.594;2022-07-01T03:37:09;15.40;79.00
51595;DHT22;37677;53.254;6.594;2022-07-01T03:39:37;15.40;78.40
51595;DHT22;37677;53.254;6.594;2022-07-01T03:42:04;15.90;77.40
51595;DHT22;37677;53.254;6.594;2022-07-01T03:44:31;15.30;76.00
51595;DHT22;37677;53.254;6.594;2022-07-01T03:46:59;15.60;77.40
51595;DHT22;37677;53.254;6.594;2022-07-01T03:49:27;15.30;77.20
51595;DHT22;37677;53.254;6.594;2022-07-01T03:51:54;15.40;77.00
51595;DHT22;37677;53.254;6.594;2022-07-01T03:54:22;15.40;76.00
51595;DHT22;37677;53.254;6.594;2022-07-01T03:57:03;15.30;76.30
51595;DHT22;37677;53.254;6.594;2022-07-01T03:59:31;15.40;75.10
51595;DHT22;37677;53.254;6.594;2022-07-01T04:01:58;15.50;76.00
51595;DHT22;37677;53.254;6.594;2022-07-01T04:04:24;15.40;75.10
51595;DHT22;37677;53.254;6.594;2022-07-01T04:06:51;15.50;76.30
51595;DHT22;37677;53.254;6.594;2022-07-01T04:09:18;15.40;74.10
51595;DHT22;37677;53.254;6.594;2022-07-01T04:11:46;15.40;73.50
51595;DHT22;37677;53.254;6.594;2022-07-01T04:14:12;15.40;72.80
51595;DHT22;37677;53.254;6.594;2022-07-01T04:16:41;15.50;73.10
51595;DHT22;37677;53.254;6.594;2022-07-01T04:19:08;15.50;73.50
51595;DHT22;37677;53.254;6.594;2022-07-01T04:21:35;15.50;72.00
51595;DHT22;37677;53.254;6.594;2022-07-01T04:24:19;16.70;72.20
51595;DHT22;37677;53.254;6.594;2022-07-01T04:26:49;15.60;71.20
51595;DHT22;37677;53.254;6.594;2022-07-01T04:29:14;15.50;71.70
51595;DHT22;37677;53.254;6.594;2022-07-01T04:31:40;16.40;71.90
51595;DHT22;37677;53.254;6.594;2022-07-01T04:34:07;15.60;73.00
51595;DHT22;37677;53.254;6.594;2022-07-01T04:36:34;15.60;70.70
51595;DHT22;37677;53.254;6.594;2022-07-01T04:39:05;15.60;72.00
51595;DHT22;37677;53.254;6.594;2022-07-01T04:41:31;15.40;71.60
51595;DHT22;37677;53.254;6.594;2022-07-01T04:44:18;13.60;69.40
51595;DHT22;37677;53.254;6.594;2022-07-01T04:46:44;15.60;69.70
51595;DHT22;37677;53.254;6.594;2022-07-01T04:49:10;15.60;68.80
51595;DHT22;37677;53.254;6.594;2022-07-01T04:51:36;15.60;69.00
51595;DHT22;37677;53.254;6.594;2022-07-01T04:54:05;15.60;67.40
51595;DHT22;37677;53.254;6.594;2022-07-01T04:56:32;15.60;68.90
51595;DHT22;37677;53.254;6.594;2022-07-01T04:58:59;15.70;70.30
51595;DHT22;37677;53.254;6.594;2022-07-01T05:01:25;15.70;70.40
51595;DHT22;37677;53.254;6.594;2022-07-01T05:03:51;15.60;69.30
51595;DHT22;37677;53.254;6.594;2022-07-01T05:06:17;15.60;69.30
51595;DHT22;37677;53.254;6.594;2022-07-01T05:08:42;16.10;68.20
51595;DHT22;37677;53.254;6.594;2022-07-01T05:11:09;15.70;69.00
51595;DHT22;37677;53.254;6.594;2022-07-01T05:13:38;15.70;68.50
51595;DHT22;37677;53.254;6.594;2022-07-01T05:16:04;15.70;68.50
51595;DHT22;37677;53.254;6.594;2022-07-01T05:18:30;16.10;66.50
51595;DHT22;37677;53.254;6.594;2022-07-01T05:21:15;15.70;68.80
51595;DHT22;37677;53.254;6.594;2022-07-01T05:23:59;15.70;68.70
51595;DHT22;37677;53.254;6.594;2022-07-01T05:26:25;15.70;69.40
51595;DHT22;37677;53.254;6.594;2022-07-01T05:28:52;16.10;69.50
51595;DHT22;37677;53.254;6.594;2022-07-01T05:31:19;15.60;67.40
51595;DHT22;37677;53.254;6.594;2022-07-01T05:33:45;15.60;67.50
51595;DHT22;37677;53.254;6.594;2022-07-01T05:36:10;15.70;69.10
51595;DHT22;37677;53.254;6.594;2022-07-01T05:38:37;15.70;69.40
51595;DHT22;37677;53.254;6.594;2022-07-01T05:41:03;15.60;69.00
51595;DHT22;37677;53.254;6.594;2022-07-01T05:43:28;16.50;70.70
51595;DHT22;37677;53.254;6.594;2022-07-01T05:45:55;15.70;70.00
51595;DHT22;37677;53.254;6.594;2022-07-01T05:48:21;15.80;69.10
51595;DHT22;37677;53.254;6.594;2022-07-01T05:50:50;15.80;69.30
51595;DHT22;37677;53.254;6.594;2022-07-01T05:53:16;16.00;70.40
51595;DHT22;37677;53.254;6.594;2022-07-01T05:55:42;15.90;70.40
51595;DHT22;37677;53.254;6.594;2022-07-01T05:58:10;15.90;69.10
51595;DHT22;37677;53.254;6.594;2022-07-01T06:00:35;16.00;67.30
51595;DHT22;37677;53.254;6.594;2022-07-01T06:03:01;16.00;65.70
51595;DHT22;37677;53.254;6.594;2022-07-01T06:05:27;16.00;66.30
51595;DHT22;37677;53.254;6.594;2022-07-01T06:07:53;16.10;68.40
51595;DHT22;37677;53.254;6.594;2022-07-01T06:10:21;16.10;67.40
51595;DHT22;37677;53.254;6.594;2022-07-01T06:12:50;16.10;65.50
51595;DHT22;37677;53.254;6.594;2022-07-01T06:15:18;16.10;64.20
51595;DHT22;37677;53.254;6.594;2022-07-01T06:17:44;16.20;64.70
51595;DHT22;37677;53.254;6.594;2022-07-01T06:20:20;16.20;62.10
51595;DHT22;37677;53.254;6.594;2022-07-01T06:22:48;16.30;63.00
51595;DHT22;37677;53.254;6.594;2022-07-01T06:25:14;16.30;61.30
51595;DHT22;37677;53.254;6.594;2022-07-01T06:27:42;16.30;57.70
51595;DHT22;37677;53.254;6.594;2022-07-01T06:30:09;16.30;57.20
51595;DHT22;37677;53.254;6.594;2022-07-01T06:32:35;16.30;55.50
51595;DHT22;37677;53.254;6.594;2022-07-01T06:35:01;16.30;54.10
51595;DHT22;37677;53.254;6.594;2022-07-01T06:37:27;16.40;56.30
51595;DHT22;37677;53.254;6.594;2022-07-01T06:39:57;16.40;56.20
51595;DHT22;37677;53.254;6.594;2022-07-01T06:42:23;16.40;54.20
51595;DHT22;37677;53.254;6.594;2022-07-01T06:44:49;16.30;51.00
51595;DHT22;37677;53.254;6.594;2022-07-01T06:47:14;15.20;51.00
51595;DHT22;37677;53.254;6.594;2022-07-01T06:49:40;16.50;50.50
51595;DHT22;37677;53.254;6.594;2022-07-01T06:52:06;16.50;50.10
51595;DHT22;37677;53.254;6.594;2022-07-01T06:54:40;16.60;49.10
51595;DHT22;37677;53.254;6.594;2022-07-01T06:57:06;16.50;52.20
51595;DHT22;37677;53.254;6.594;2022-07-01T06:59:35;16.60;39.60
51595;DHT22;37677;53.254;6.594;2022-07-01T07:02:01;16.60;45.00
51595;DHT22;37677;53.254;6.594;2022-07-01T07:04:26;16.60;44.80
51595;DHT22;37677;53.254;6.594;2022-07-01T07:06:55;17.30;50.60
51595;DHT22;37677;53.254;6.594;2022-07-01T07:09:21;16.70;43.90
51595;DHT22;37677;53.254;6.594;2022-07-01T07:11:46;16.70;33.00
51595;DHT22;37677;53.254;6.594;2022-07-01T07:14:14;16.70;36.90
51595;DHT22;37677;53.254;6.594;2022-07-01T07:16:41;16.80;43.60
51595;DHT22;37677;53.254;6.594;2022-07-01T07:19:06;16.80;44.40
51595;DHT22;37677;53.254;6.594;2022-07-01T07:21:44;16.80;44.20
51595;DHT22;37677;53.254;6.594;2022-07-01T07:24:10;16.80;36.10
51595;DHT22;37677;53.254;6.594;2022-07-01T07:26:42;16.80;35.60
51595;DHT22;37677;53.254;6.594;2022-07-01T07:33:07;16.90;30.30
51595;DHT22;37677;53.254;6.594;2022-07-01T07:39:15;16.90;35.60
51595;DHT22;37677;53.254;6.594;2022-07-01T07:45:21;15.70;33.00
51595;DHT22;37677;53.254;6.594;2022-07-01T07:47:56;17.40;35.50
51595;DHT22;37677;53.254;6.594;2022-07-01T07:50:22;17.30;27.30
51595;DHT22;37677;53.254;6.594;2022-07-01T07:52:51;17.30;21.40
51595;DHT22;37677;53.254;6.594;2022-07-01T07:55:17;17.20;25.80
51595;DHT22;37677;53.254;6.594;2022-07-01T07:57:42;17.30;22.90
51595;DHT22;37677;53.254;6.594;2022-07-01T08:00:11;17.50;29.20
51595;DHT22;37677;53.254;6.594;2022-07-01T08:02:38;17.70;22.00
51595;DHT22;37677;53.254;6.594;2022-07-01T08:05:04;17.70;18.60
51595;DHT22;37677;53.254;6.594;2022-07-01T08:07:34;19.10;15.90
51595;DHT22;37677;53.254;6.594;2022-07-01T08:09:59;17.70;7.50
51595;DHT22;37677;53.254;6.594;2022-07-01T08:12:52;18.70;17.90
51595;DHT22;37677;53.254;6.594;2022-07-01T08:15:22;18.10;13.10
51595;DHT22;37677;53.254;6.594;2022-07-01T08:17:48;18.20;1.00
51595;DHT22;37677;53.254;6.594;2022-07-01T08:20:14;19.20;1.00
51595;DHT22;37677;53.254;6.594;2022-07-01T08:22:53;19.50;1.00
51595;DHT22;37677;53.254;6.594;2022-07-01T08:25:19;19.40;1.00
51595;DHT22;37677;53.254;6.594;2022-07-01T08:27:45;19.30;1.00
51595;DHT22;37677;53.254;6.594;2022-07-01T08:30:16;19.30;1.00
51595;DHT22;37677;53.254;6.594;2022-07-01T08:32:42;20.80;1.00
51595;DHT22;37677;53.254;6.594;2022-07-01T08:35:10;19.60;1.00
51595;DHT22;37677;53.254;6.594;2022-07-01T08:37:36;19.80;1.00
51595;DHT22;37677;53.254;6.594;2022-07-01T08:40:02;19.60;1.00
51595;DHT22;37677;53.254;6.594;2022-07-01T08:42:28;19.80;1.00
51595;DHT22;37677;53.254;6.594;2022-07-01T08:44:54;19.90;1.00
51595;DHT22;37677;53.254;6.594;2022-07-01T08:47:29;21.80;1.00
51595;DHT22;37677;53.254;6.594;2022-07-01T08:49:55;20.30;1.00
51595;DHT22;37677;53.254;6.594;2022-07-01T08:52:20;20.20;1.00
51595;DHT22;37677;53.254;6.594;2022-07-01T08:54:48;20.00;1.00
51595;DHT22;37677;53.254;6.594;2022-07-01T08:57:19;19.90;1.00
51595;DHT22;37677;53.254;6.594;2022-07-01T08:59:45;19.90;1.00
51595;DHT22;37677;53.254;6.594;2022-07-01T09:02:25;19.80;1.00
51595;DHT22;37677;53.254;6.594;2022-07-01T09:05:05;20.20;1.00
51595;DHT22;37677;53.254;6.594;2022-07-01T09:07:36;20.60;1.00
51595;DHT22;37677;53.254;6.594;2022-07-01T09:10:16;20.80;1.00
51595;DHT22;37677;53.254;6.594;2022-07-01T09:12:47;21.20;99.90
51595;DHT22;37677;53.254;6.594;2022-07-01T09:15:30;21.50;99.90
51595;DHT22;37677;53.254;6.594;2022-07-01T09:18:05;21.70;99.90
51595;DHT22;37677;53.254;6.594;2022-07-01T09:20:36;21.70;1.00
51595;DHT22;37677;53.254;6.594;2022-07-01T09:23:07;21.90;99.90
51595;DHT22;37677;53.254;6.594;2022-07-01T09:25:48;21.80;99.90
51595;DHT22;37677;53.254;6.594;2022-07-01T09:28:24;21.90;1.00
51595;DHT22;37677;53.254;6.594;2022-07-01T09:31:00;21.20;99.90
51595;DHT22;37677;53.254;6.594;2022-07-01T09:33:27;20.70;1.00
51595;DHT22;37677;53.254;6.594;2022-07-01T09:35:55;20.30;81.10
51595;DHT22;37677;53.254;6.594;2022-07-01T09:38:25;20.90;1.00
51595;DHT22;37677;53.254;6.594;2022-07-01T09:40:55;20.40;99.90
51595;DHT22;37677;53.254;6.594;2022-07-01T09:46:10;19.60;99.90
51595;DHT22;37677;53.254;6.594;2022-07-01T09:51:06;20.70;1.00
51595;DHT22;37677;53.254;6.594;2022-07-01T09:53:33;20.60;1.00
51595;DHT22;37677;53.254;6.594;2022-07-01T09:56:00;20.60;99.90
51595;DHT22;37677;53.254;6.594;2022-07-01T09:58:25;20.30;99.90
51595;DHT22;37677;53.254;6.594;2022-07-01T10:00:55;20.20;99.90
51595;DHT22;37677;53.254;6.594;2022-07-01T10:03:22;20.30;1.00
51595;DHT22;37677;53.254;6.594;2022-07-01T10:05:54;20.30;93.20
51595;DHT22;37677;53.254;6.594;2022-07-01T10:14:14;20.50;99.90
51595;DHT22;37677;53.254;6.594;2022-07-01T10:16:43;20.80;99.90
51595;DHT22;37677;53.254;6.594;2022-07-01T10:21:46;20.90;99.90
51595;DHT22;37677;53.254;6.594;2022-07-01T10:24:13;20.70;99.90
51595;DHT22;37677;53.254;6.594;2022-07-01T10:26:39;20.90;99.90
51595;DHT22;37677;53.254;6.594;2022-07-01T10:29:05;21.20;1.00
51595;DHT22;37677;53.254;6.594;2022-07-01T10:31:51;21.40;99.90
51595;DHT22;37677;53.254;6.594;2022-07-01T10:34:17;19.80;99.90
51595;DHT22;37677;53.254;6.594;2022-07-01T10:36:44;21.20;1.00
51595;DHT22;37677;53.254;6.594;2022-07-01T10:39:12;21.20;99.90
51595;DHT22;37677;53.254;6.594;2022-07-01T10:44:13;21.90;99.90
51595;DHT22;37677;53.254;6.594;2022-07-01T10:46:43;21.40;95.30
51595;DHT22;37677;53.254;6.594;2022-07-01T10:49:19;21.60;99.90
51595;DHT22;37677;53.254;6.594;2022-07-01T10:51:59;21.70;1.00
51595;DHT22;37677;53.254;6.594;2022-07-01T11:02:33;20.90;99.90
51595;DHT22;37677;53.254;6.594;2022-07-01T11:05:07;21.10;1.00
51595;DHT22;37677;53.254;6.594;2022-07-01T11:07:38;21.40;99.90
51595;DHT22;37677;53.254;6.594;2022-07-01T11:10:07;21.70;99.90
51595;DHT22;37677;53.254;6.594;2022-07-01T11:12:37;21.40;99.90
51595;DHT22;37677;53.254;6.594;2022-07-01T11:15:06;21.20;99.90
51595;DHT22;37677;53.254;6.594;2022-07-01T11:17:33;20.70;99.90
51595;DHT22;37677;53.254;6.594;2022-07-01T11:20:00;20.60;99.90
51595;DHT22;37677;53.254;6.594;2022-07-01T11:22:32;20.10;19.10
51595;DHT22;37677;53.254;6.594;2022-07-01T11:25:10;19.80;99.90
51595;DHT22;37677;53.254;6.594;2022-07-01T11:27:39;20.00;99.90
51595;DHT22;37677;53.254;6.594;2022-07-01T11:30:08;20.10;99.90
51595;DHT22;37677;53.254;6.594;2022-07-01T11:32:38;19.70;1.00
51595;DHT22;37677;53.254;6.594;2022-07-01T11:35:16;19.70;99.90
51595;DHT22;37677;53.254;6.594;2022-07-01T11:38:16;20.00;99.90
51595;DHT22;37677;53.254;6.594;2022-07-01T11:41:06;20.20;1.00
51595;DHT22;37677;53.254;6.594;2022-07-01T11:43:39;20.40;1.00
51595;DHT22;37677;53.254;6.594;2022-07-01T11:46:07;20.30;1.00
51595;DHT22;37677;53.254;6.594;2022-07-01T11:48:36;20.40;99.90
51595;DHT22;37677;53.254;6.594;2022-07-01T11:51:10;20.40;99.90
51595;DHT22;37677;53.254;6.594;2022-07-01T11:53:40;20.50;7.50
51595;DHT22;37677;53.254;6.594;2022-07-01T11:56:08;20.60;99.90
51595;DHT22;37677;53.254;6.594;2022-07-01T11:59:00;20.70;99.90
51595;DHT22;37677;53.254;6.594;2022-07-01T12:01:36;20.60;27.10
51595;DHT22;37677;53.254;6.594;2022-07-01T12:04:07;20.50;99.90
51595;DHT22;37677;53.254;6.594;2022-07-01T12:06:34;20.10;99.90
51595;DHT22;37677;53.254;6.594;2022-07-01T12:09:06;20.10;99.90
51595;DHT22;37677;53.254;6.594;2022-07-01T12:11:32;19.80;1.00
51595;DHT22;37677;53.254;6.594;2022-07-01T12:14:00;19.70;99.90
51595;DHT22;37677;53.254;6.594;2022-07-01T12:16:36;19.60;99.90
51595;DHT22;37677;53.254;6.594;2022-07-01T12:19:06;19.70;99.90
51595;DHT22;37677;53.254;6.594;2022-07-01T12:21:51;20.20;99.90
51595;DHT22;37677;53.254;6.594;2022-07-01T12:24:17;20.50;1.00
51595;DHT22;37677;53.254;6.594;2022-07-01T12:26:49;20.70;99.90
51595;DHT22;37677;53.254;6.594;2022-07-01T12:29:17;20.80;78.10
51595;DHT22;37677;53.254;6.594;2022-07-01T12:32:02;20.90;68.10
51595;DHT22;37677;53.254;6.594;2022-07-01T12:34:49;21.00;1.00
51595;DHT22;37677;53.254;6.594;2022-07-01T12:39:56;20.90;99.90
51595;DHT22;37677;53.254;6.594;2022-07-01T12:42:42;21.80;39.60
51595;DHT22;37677;53.254;6.594;2022-07-01T12:45:08;20.60;99.90
51595;DHT22;37677;53.254;6.594;2022-07-01T12:47:45;20.50;99.90
51595;DHT22;37677;53.254;6.594;2022-07-01T12:55:35;20.90;99.90
51595;DHT22;37677;53.254;6.594;2022-07-01T12:58:03;20.80;99.90
51595;DHT22;37677;53.254;6.594;2022-07-01T13:00:31;20.90;99.90
51595;DHT22;37677;53.254;6.594;2022-07-01T13:03:02;20.70;99.90
51595;DHT22;37677;53.254;6.594;2022-07-01T13:05:32;20.70;99.90
51595;DHT22;37677;53.254;6.594;2022-07-01T13:07:58;20.80;99.90
51595;DHT22;37677;53.254;6.594;2022-07-01T13:10:27;20.80;99.90
51595;DHT22;37677;53.254;6.594;2022-07-01T13:12:53;20.90;99.90
51595;DHT22;37677;53.254;6.594;2022-07-01T13:15:19;21.00;99.90
51595;DHT22;37677;53.254;6.594;2022-07-01T13:17:47;21.10;99.90
51595;DHT22;37677;53.254;6.594;2022-07-01T13:20:14;21.10;99.90
51595;DHT22;37677;53.254;6.594;2022-07-01T13:22:43;21.10;99.90
51595;DHT22;37677;53.254;6.594;2022-07-01T13:25:09;20.90;99.90
51595;DHT22;37677;53.254;6.594;2022-07-01T13:27:35;20.80;99.90
51595;DHT22;37677;53.254;6.594;2022-07-01T13:30:04;20.70;1.00
51595;DHT22;37677;53.254;6.594;2022-07-01T13:32:30;20.70;5.20
51595;DHT22;37677;53.254;6.594;2022-07-01T13:35:07;20.70;1.00
51595;DHT22;37677;53.254;6.594;2022-07-01T13:37:42;20.60;75.30
51595;DHT22;37677;53.254;6.594;2022-07-01T13:40:08;20.50;1.00
51595;DHT22;37677;53.254;6.594;2022-07-01T13:42:37;20.60;1.00
51595;DHT22;37677;53.254;6.594;2022-07-01T13:45:04;20.60;1.00
51595;DHT22;37677;53.254;6.594;2022-07-01T13:47:30;20.60;99.90
51595;DHT22;37677;53.254;6.594;2022-07-01T13:49:56;20.60;1.00
51595;DHT22;37677;53.254;6.594;2022-07-01T13:52:25;20.50;1.00
51595;DHT22;37677;53.254;6.594;2022-07-01T13:54:54;20.30;1.00
51595;DHT22;37677;53.254;6.594;2022-07-01T13:57:21;20.20;1.00
51595;DHT22;37677;53.254;6.594;2022-07-01T13:59:47;20.30;1.00
51595;DHT22;37677;53.254;6.594;2022-07-01T14:02:13;20.30;1.00
51595;DHT22;37677;53.254;6.594;2022-07-01T14:04:39;20.40;1.00
51595;DHT22;37677;53.254;6.594;2022-07-01T14:07:07;20.60;1.00
51595;DHT22;37677;53.254;6.594;2022-07-01T14:09:33;20.70;1.00
51595;DHT22;37677;53.254;6.594;2022-07-01T14:11:59;20.60;82.70
51595;DHT22;37677;53.254;6.594;2022-07-01T14:14:28;20.40;1.00
51595;DHT22;37677;53.254;6.594;2022-07-01T14:16:54;20.40;99.90
51595;DHT22;37677;53.254;6.594;2022-07-01T14:19:20;20.50;99.90
51595;DHT22;37677;53.254;6.594;2022-07-01T14:21:45;20.60;99.90
51595;DHT22;37677;53.254;6.594;2022-07-01T14:24:11;20.80;99.90
51595;DHT22;37677;53.254;6.594;2022-07-01T14:26:37;21.00;99.90
51595;DHT22;37677;53.254;6.594;2022-07-01T14:29:06;20.80;99.90
51595;DHT22;37677;53.254;6.594;2022-07-01T14:31:32;20.80;99.90
51595;DHT22;37677;53.254;6.594;2022-07-01T14:33:58;21.20;1.00
51595;DHT22;37677;53.254;6.594;2022-07-01T14:36:24;21.00;1.00
51595;DHT22;37677;53.254;6.594;2022-07-01T14:38:50;21.00;99.90
51595;DHT22;37677;53.254;6.594;2022-07-01T14:41:15;21.10;1.00
51595;DHT22;37677;53.254;6.594;2022-07-01T14:43:41;21.10;99.90
51595;DHT22;37677;53.254;6.594;2022-07-01T14:46:08;21.10;99.90
51595;DHT22;37677;53.254;6.594;2022-07-01T14:48:36;21.00;99.90
51595;DHT22;37677;53.254;6.594;2022-07-01T14:51:07;20.80;2.90
51595;DHT22;37677;53.254;6.594;2022-07-01T14:53:33;22.40;74.10
51595;DHT22;37677;53.254;6.594;2022-07-01T14:55:58;20.30;57.20
51595;DHT22;37677;53.254;6.594;2022-07-01T14:58:24;20.50;99.90
51595;DHT22;37677;53.254;6.594;2022-07-01T15:00:50;20.50;76.90
51595;DHT22;37677;53.254;6.594;2022-07-01T15:03:16;20.30;82.30
51595;DHT22;37677;53.254;6.594;2022-07-01T15:05:41;20.30;67.30
51595;DHT22;37677;53.254;6.594;2022-07-01T15:08:07;20.50;88.00
51595;DHT22;37677;53.254;6.594;2022-07-01T15:10:33;20.40;88.90
51595;DHT22;37677;53.254;6.594;2022-07-01T15:12:59;20.30;99.90
51595;DHT22;37677;53.254;6.594;2022-07-01T15:15:35;20.40;99.90
51595;DHT22;37677;53.254;6.594;2022-07-01T15:18:00;19.90;99.90
51595;DHT22;37677;53.254;6.594;2022-07-01T15:20:26;20.70;99.90
51595;DHT22;37677;53.254;6.594;2022-07-01T15:22:54;20.90;99.90
51595;DHT22;37677;53.254;6.594;2022-07-01T15:25:22;21.90;99.90
51595;DHT22;37677;53.254;6.594;2022-07-01T15:27:48;21.00;99.90
51595;DHT22;37677;53.254;6.594;2022-07-01T15:30:16;20.90;50.40
51595;DHT22;37677;53.254;6.594;2022-07-01T15:32:51;20.90;27.70
51595;DHT22;37677;53.254;6.594;2022-07-01T15:35:25;20.80;61.40
51595;DHT22;37677;53.254;6.594;2022-07-01T15:37:57;20.90;99.90
51595;DHT22;37677;53.254;6.594;2022-07-01T15:40:25;21.00;97.50
51595;DHT22;37677;53.254;6.594;2022-07-01T15:42:54;20.90;67.10
51595;DHT22;37677;53.254;6.594;2022-07-01T15:45:24;20.90;78.30
51595;DHT22;37677;53.254;6.594;2022-07-01T15:47:54;20.90;90.30
51595;DHT22;37677;53.254;6.594;2022-07-01T15:50:41;20.90;99.90
51595;DHT22;37677;53.254;6.594;2022-07-01T15:53:11;20.80;99.90
51595;DHT22;37677;53.254;6.594;2022-07-01T15:55:39;20.80;99.90
51595;DHT22;37677;53.254;6.594;2022-07-01T15:58:11;20.60;99.90
51595;DHT22;37677;53.254;6.594;2022-07-01T16:00:44;20.20;99.90
51595;DHT22;37677;53.254;6.594;2022-07-01T16:03:10;20.10;99.90
51595;DHT22;37677;53.254;6.594;2022-07-01T16:05:37;20.10;99.90
51595;DHT22;37677;53.254;6.594;2022-07-01T16:08:05;20.20;99.90
51595;DHT22;37677;53.254;6.594;2022-07-01T16:10:49;20.20;99.90
51595;DHT22;37677;53.254;6.594;2022-07-01T16:13:25;20.20;99.90
51595;DHT22;37677;53.254;6.594;2022-07-01T16:15:53;20.20;99.90
51595;DHT22;37677;53.254;6.594;2022-07-01T16:18:26;20.00;99.90
51595;DHT22;37677;53.254;6.594;2022-07-01T16:20:56;19.60;99.90
51595;DHT22;37677;53.254;6.594;2022-07-01T16:23:26;20.00;99.90
51595;DHT22;37677;53.254;6.594;2022-07-01T16:25:55;20.00;99.90